Terminal Aerodrome Forecast
Issued by NWS

Home | Current Version | Previous Version | Text Only | Print | Product List | Glossary On
Versions: 1 2 3 4 5 6 7 8 9 10 11 12 13 14 15 16 17
000
FTUS44 KLZK 110500 RRA
TAFHRO
TAF
KHRO 110540Z 1106/1206 12006KT P6SM VCSH FEW030 BKN100
      TEMPO 1109/1113 4SM BR BKN030
     FM111500 15006KT P6SM SCT040
     FM111800 17006KT P6SM SCT050
     FM120100 16005KT P6SM SCT250=

USA.gov is the U.S. government's official web portal to all federal, state and local government web resources and services.